sensor_id;sensor_type;location;lat;lon;timestamp;P1;durP1;ratioP1;P2;durP2;ratioP2
42912;SDS011;50720;54.324;18.558;2022-12-07T00:02:28;29.48;;;13.43;;
42912;SDS011;50720;54.324;18.558;2022-12-07T00:07:30;26.20;;;11.85;;
42912;SDS011;50720;54.324;18.558;2022-12-07T00:10:00;27.67;;;14.75;;
42912;SDS011;50720;54.324;18.558;2022-12-07T00:12:30;25.80;;;13.03;;
42912;SDS011;50720;54.324;18.558;2022-12-07T00:14:59;27.50;;;12.43;;
42912;SDS011;50720;54.324;18.558;2022-12-07T00:17:29;28.17;;;13.32;;
42912;SDS011;50720;54.324;18.558;2022-12-07T00:20:02;25.13;;;12.48;;
42912;SDS011;50720;54.324;18.558;2022-12-07T00:22:33;29.20;;;12.80;;
42912;SDS011;50720;54.324;18.558;2022-12-07T00:25:02;26.35;;;13.60;;
42912;SDS011;50720;54.324;18.558;2022-12-07T00:27:33;23.25;;;11.77;;
42912;SDS011;50720;54.324;18.558;2022-12-07T00:30:02;27.98;;;14.00;;
42912;SDS011;50720;54.324;18.558;2022-12-07T00:32:33;22.88;;;13.30;;
42912;SDS011;50720;54.324;18.558;2022-12-07T00:35:04;27.73;;;13.25;;
42912;SDS011;50720;54.324;18.558;2022-12-07T00:37:34;23.92;;;12.00;;
42912;SDS011;50720;54.324;18.558;2022-12-07T00:40:04;25.63;;;13.32;;
42912;SDS011;50720;54.324;18.558;2022-12-07T00:45:04;28.60;;;12.85;;
42912;SDS011;50720;54.324;18.558;2022-12-07T00:47:35;28.77;;;13.00;;
42912;SDS011;50720;54.324;18.558;2022-12-07T00:50:06;26.45;;;12.15;;
42912;SDS011;50720;54.324;18.558;2022-12-07T00:52:37;30.08;;;15.35;;
42912;SDS011;50720;54.324;18.558;2022-12-07T00:55:06;23.80;;;12.70;;
42912;SDS011;50720;54.324;18.558;2022-12-07T00:57:37;34.25;;;15.82;;
42912;SDS011;50720;54.324;18.558;2022-12-07T01:00:07;26.20;;;12.63;;
42912;SDS011;50720;54.324;18.558;2022-12-07T01:02:38;29.38;;;13.05;;
42912;SDS011;50720;54.324;18.558;2022-12-07T01:05:09;28.75;;;14.48;;
42912;SDS011;50720;54.324;18.558;2022-12-07T01:07:39;24.42;;;12.52;;
42912;SDS011;50720;54.324;18.558;2022-12-07T01:10:09;25.40;;;13.13;;
42912;SDS011;50720;54.324;18.558;2022-12-07T01:12:39;32.17;;;12.85;;
42912;SDS011;50720;54.324;18.558;2022-12-07T01:15:08;29.35;;;13.18;;
42912;SDS011;50720;54.324;18.558;2022-12-07T01:17:38;30.83;;;13.75;;
42912;SDS011;50720;54.324;18.558;2022-12-07T01:20:11;31.27;;;13.40;;
42912;SDS011;50720;54.324;18.558;2022-12-07T01:22:42;29.58;;;14.05;;
42912;SDS011;50720;54.324;18.558;2022-12-07T01:25:12;24.45;;;13.40;;
42912;SDS011;50720;54.324;18.558;2022-12-07T01:27:42;27.53;;;13.43;;
42912;SDS011;50720;54.324;18.558;2022-12-07T01:30:12;25.48;;;12.60;;
42912;SDS011;50720;54.324;18.558;2022-12-07T01:32:43;29.83;;;12.98;;
42912;SDS011;50720;54.324;18.558;2022-12-07T01:35:14;28.98;;;12.05;;
42912;SDS011;50720;54.324;18.558;2022-12-07T01:37:44;28.02;;;12.52;;
42912;SDS011;50720;54.324;18.558;2022-12-07T01:40:13;30.45;;;12.25;;
42912;SDS011;50720;54.324;18.558;2022-12-07T01:42:43;27.35;;;12.40;;
42912;SDS011;50720;54.324;18.558;2022-12-07T01:48:13;28.05;;;12.05;;
42912;SDS011;50720;54.324;18.558;2022-12-07T01:50:47;30.10;;;11.95;;
42912;SDS011;50720;54.324;18.558;2022-12-07T01:53:19;33.60;;;12.90;;
42912;SDS011;50720;54.324;18.558;2022-12-07T01:55:49;30.45;;;13.85;;
42912;SDS011;50720;54.324;18.558;2022-12-07T01:58:22;26.13;;;12.35;;
42912;SDS011;50720;54.324;18.558;2022-12-07T02:00:52;28.85;;;13.32;;
42912;SDS011;50720;54.324;18.558;2022-12-07T02:03:24;30.02;;;12.38;;
42912;SDS011;50720;54.324;18.558;2022-12-07T02:06:00;27.70;;;12.98;;
42912;SDS011;50720;54.324;18.558;2022-12-07T02:08:30;32.30;;;13.73;;
42912;SDS011;50720;54.324;18.558;2022-12-07T02:11:00;30.70;;;12.18;;
42912;SDS011;50720;54.324;18.558;2022-12-07T02:13:31;28.40;;;12.70;;
42912;SDS011;50720;54.324;18.558;2022-12-07T02:16:06;27.40;;;11.55;;
42912;SDS011;50720;54.324;18.558;2022-12-07T02:18:45;26.50;;;12.57;;
42912;SDS011;50720;54.324;18.558;2022-12-07T02:21:27;32.33;;;11.60;;
42912;SDS011;50720;54.324;18.558;2022-12-07T02:27:16;30.02;;;12.93;;
42912;SDS011;50720;54.324;18.558;2022-12-07T02:30:10;26.83;;;12.43;;
42912;SDS011;50720;54.324;18.558;2022-12-07T02:32:44;31.30;;;12.73;;
42912;SDS011;50720;54.324;18.558;2022-12-07T02:35:21;27.25;;;10.80;;
42912;SDS011;50720;54.324;18.558;2022-12-07T02:37:58;29.35;;;11.38;;
42912;SDS011;50720;54.324;18.558;2022-12-07T02:40:38;25.52;;;10.82;;
42912;SDS011;50720;54.324;18.558;2022-12-07T02:43:12;25.73;;;11.02;;
42912;SDS011;50720;54.324;18.558;2022-12-07T02:45:46;26.73;;;11.43;;
42912;SDS011;50720;54.324;18.558;2022-12-07T02:48:17;24.27;;;10.90;;
42912;SDS011;50720;54.324;18.558;2022-12-07T02:50:49;24.55;;;11.02;;
42912;SDS011;50720;54.324;18.558;2022-12-07T02:53:29;19.77;;;9.50;;
42912;SDS011;50720;54.324;18.558;2022-12-07T02:56:03;20.85;;;9.88;;
42912;SDS011;50720;54.324;18.558;2022-12-07T02:58:40;19.80;;;9.50;;
42912;SDS011;50720;54.324;18.558;2022-12-07T03:01:24;22.45;;;9.20;;
42912;SDS011;50720;54.324;18.558;2022-12-07T03:04:01;19.95;;;9.25;;
42912;SDS011;50720;54.324;18.558;2022-12-07T03:06:42;17.38;;;7.38;;
42912;SDS011;50720;54.324;18.558;2022-12-07T03:09:19;17.67;;;8.80;;
42912;SDS011;50720;54.324;18.558;2022-12-07T03:11:58;18.50;;;7.90;;
42912;SDS011;50720;54.324;18.558;2022-12-07T03:14:37;14.00;;;7.63;;
42912;SDS011;50720;54.324;18.558;2022-12-07T03:17:12;14.10;;;8.23;;
42912;SDS011;50720;54.324;18.558;2022-12-07T03:19:46;14.65;;;7.53;;
42912;SDS011;50720;54.324;18.558;2022-12-07T03:22:19;15.65;;;7.35;;
42912;SDS011;50720;54.324;18.558;2022-12-07T03:24:52;17.20;;;7.55;;
42912;SDS011;50720;54.324;18.558;2022-12-07T03:27:26;13.93;;;6.75;;
42912;SDS011;50720;54.324;18.558;2022-12-07T03:30:00;15.68;;;8.27;;
42912;SDS011;50720;54.324;18.558;2022-12-07T03:32:35;12.90;;;6.18;;
42912;SDS011;50720;54.324;18.558;2022-12-07T03:35:09;12.27;;;6.57;;
42912;SDS011;50720;54.324;18.558;2022-12-07T03:37:46;16.02;;;6.85;;
42912;SDS011;50720;54.324;18.558;2022-12-07T03:40:21;12.38;;;6.85;;
42912;SDS011;50720;54.324;18.558;2022-12-07T03:42:55;8.75;;;5.38;;
42912;SDS011;50720;54.324;18.558;2022-12-07T03:45:30;13.77;;;7.72;;
42912;SDS011;50720;54.324;18.558;2022-12-07T03:48:08;14.07;;;6.43;;
42912;SDS011;50720;54.324;18.558;2022-12-07T03:50:43;13.90;;;5.85;;
42912;SDS011;50720;54.324;18.558;2022-12-07T03:53:18;11.40;;;5.72;;
42912;SDS011;50720;54.324;18.558;2022-12-07T03:55:50;12.40;;;6.20;;
42912;SDS011;50720;54.324;18.558;2022-12-07T03:58:21;15.40;;;6.70;;
42912;SDS011;50720;54.324;18.558;2022-12-07T04:00:52;18.98;;;6.93;;
42912;SDS011;50720;54.324;18.558;2022-12-07T04:03:23;11.63;;;5.82;;
42912;SDS011;50720;54.324;18.558;2022-12-07T04:05:53;11.80;;;6.18;;
42912;SDS011;50720;54.324;18.558;2022-12-07T04:08:23;14.00;;;6.05;;
42912;SDS011;50720;54.324;18.558;2022-12-07T04:10:53;14.90;;;6.30;;
42912;SDS011;50720;54.324;18.558;2022-12-07T04:13:22;11.80;;;6.00;;
42912;SDS011;50720;54.324;18.558;2022-12-07T04:15:51;16.90;;;6.95;;
42912;SDS011;50720;54.324;18.558;2022-12-07T04:18:22;9.20;;;5.55;;
42912;SDS011;50720;54.324;18.558;2022-12-07T04:20:53;9.90;;;5.30;;
42912;SDS011;50720;54.324;18.558;2022-12-07T04:23:23;10.75;;;5.18;;
42912;SDS011;50720;54.324;18.558;2022-12-07T04:25:52;9.15;;;4.95;;
42912;SDS011;50720;54.324;18.558;2022-12-07T04:28:22;10.25;;;5.07;;
42912;SDS011;50720;54.324;18.558;2022-12-07T04:30:51;9.52;;;4.80;;
42912;SDS011;50720;54.324;18.558;2022-12-07T04:33:22;10.43;;;5.82;;
42912;SDS011;50720;54.324;18.558;2022-12-07T04:38:23;7.00;;;4.50;;
42912;SDS011;50720;54.324;18.558;2022-12-07T04:40:52;10.07;;;4.68;;
42912;SDS011;50720;54.324;18.558;2022-12-07T04:43:22;8.45;;;4.20;;
42912;SDS011;50720;54.324;18.558;2022-12-07T04:45:51;8.23;;;4.82;;
42912;SDS011;50720;54.324;18.558;2022-12-07T04:48:21;9.50;;;5.25;;
42912;SDS011;50720;54.324;18.558;2022-12-07T04:50:52;9.63;;;4.60;;
42912;SDS011;50720;54.324;18.558;2022-12-07T04:53:21;7.82;;;4.32;;
42912;SDS011;50720;54.324;18.558;2022-12-07T04:55:51;6.53;;;4.57;;
42912;SDS011;50720;54.324;18.558;2022-12-07T04:58:21;7.53;;;4.90;;
42912;SDS011;50720;54.324;18.558;2022-12-07T05:00:53;8.10;;;4.28;;
42912;SDS011;50720;54.324;18.558;2022-12-07T05:03:23;8.80;;;4.40;;
42912;SDS011;50720;54.324;18.558;2022-12-07T05:05:54;6.30;;;4.30;;
42912;SDS011;50720;54.324;18.558;2022-12-07T05:08:24;7.72;;;4.25;;
42912;SDS011;50720;54.324;18.558;2022-12-07T05:10:53;8.30;;;4.43;;
42912;SDS011;50720;54.324;18.558;2022-12-07T05:13:24;6.88;;;4.53;;
42912;SDS011;50720;54.324;18.558;2022-12-07T05:15:53;7.60;;;4.45;;
42912;SDS011;50720;54.324;18.558;2022-12-07T05:18:23;7.45;;;4.25;;
42912;SDS011;50720;54.324;18.558;2022-12-07T05:20:54;8.90;;;4.88;;
42912;SDS011;50720;54.324;18.558;2022-12-07T05:23:24;7.25;;;4.50;;
42912;SDS011;50720;54.324;18.558;2022-12-07T05:25:53;9.75;;;5.10;;
42912;SDS011;50720;54.324;18.558;2022-12-07T05:28:23;9.55;;;4.18;;
42912;SDS011;50720;54.324;18.558;2022-12-07T05:30:53;8.98;;;5.18;;
42912;SDS011;50720;54.324;18.558;2022-12-07T05:33:26;9.65;;;4.95;;
42912;SDS011;50720;54.324;18.558;2022-12-07T05:35:57;9.13;;;5.60;;
42912;SDS011;50720;54.324;18.558;2022-12-07T05:38:33;8.43;;;4.97;;
42912;SDS011;50720;54.324;18.558;2022-12-07T05:41:03;9.95;;;5.68;;
42912;SDS011;50720;54.324;18.558;2022-12-07T05:43:34;10.00;;;5.88;;
42912;SDS011;50720;54.324;18.558;2022-12-07T05:46:03;10.40;;;5.68;;
42912;SDS011;50720;54.324;18.558;2022-12-07T05:48:33;8.57;;;5.17;;
42912;SDS011;50720;54.324;18.558;2022-12-07T05:51:05;9.30;;;5.17;;
42912;SDS011;50720;54.324;18.558;2022-12-07T05:56:04;9.98;;;5.20;;
42912;SDS011;50720;54.324;18.558;2022-12-07T05:58:34;12.43;;;6.03;;
42912;SDS011;50720;54.324;18.558;2022-12-07T06:01:21;7.93;;;4.82;;
42912;SDS011;50720;54.324;18.558;2022-12-07T06:03:52;9.85;;;5.32;;
42912;SDS011;50720;54.324;18.558;2022-12-07T06:06:23;9.65;;;5.28;;
42912;SDS011;50720;54.324;18.558;2022-12-07T06:08:53;7.65;;;4.32;;
42912;SDS011;50720;54.324;18.558;2022-12-07T06:11:22;6.88;;;4.10;;
42912;SDS011;50720;54.324;18.558;2022-12-07T06:14:10;7.47;;;4.60;;
42912;SDS011;50720;54.324;18.558;2022-12-07T06:16:39;3.63;;;2.58;;
42912;SDS011;50720;54.324;18.558;2022-12-07T06:19:10;3.95;;;2.13;;
42912;SDS011;50720;54.324;18.558;2022-12-07T06:21:41;6.18;;;2.30;;
42912;SDS011;50720;54.324;18.558;2022-12-07T06:24:11;2.42;;;1.13;;
42912;SDS011;50720;54.324;18.558;2022-12-07T06:26:41;2.40;;;1.55;;
42912;SDS011;50720;54.324;18.558;2022-12-07T06:29:12;2.95;;;0.95;;
42912;SDS011;50720;54.324;18.558;2022-12-07T06:31:42;3.42;;;1.67;;
42912;SDS011;50720;54.324;18.558;2022-12-07T06:34:13;2.20;;;1.25;;
42912;SDS011;50720;54.324;18.558;2022-12-07T06:36:45;3.47;;;2.42;;
42912;SDS011;50720;54.324;18.558;2022-12-07T06:39:19;2.63;;;1.55;;
42912;SDS011;50720;54.324;18.558;2022-12-07T06:41:49;1.52;;;1.30;;
42912;SDS011;50720;54.324;18.558;2022-12-07T06:44:21;2.63;;;1.77;;
42912;SDS011;50720;54.324;18.558;2022-12-07T06:46:51;2.05;;;1.58;;
42912;SDS011;50720;54.324;18.558;2022-12-07T06:49:41;2.28;;;1.52;;
42912;SDS011;50720;54.324;18.558;2022-12-07T06:52:13;3.03;;;1.60;;
42912;SDS011;50720;54.324;18.558;2022-12-07T06:54:43;3.05;;;1.27;;
42912;SDS011;50720;54.324;18.558;2022-12-07T06:57:12;2.97;;;1.73;;
42912;SDS011;50720;54.324;18.558;2022-12-07T06:59:42;2.95;;;2.17;;
42912;SDS011;50720;54.324;18.558;2022-12-07T07:02:12;1.95;;;1.63;;
42912;SDS011;50720;54.324;18.558;2022-12-07T07:04:42;3.63;;;1.98;;
42912;SDS011;50720;54.324;18.558;2022-12-07T07:07:12;3.20;;;1.80;;
42912;SDS011;50720;54.324;18.558;2022-12-07T07:09:42;2.88;;;1.73;;
42912;SDS011;50720;54.324;18.558;2022-12-07T07:12:12;2.53;;;2.20;;
42912;SDS011;50720;54.324;18.558;2022-12-07T07:14:42;4.28;;;2.60;;
42912;SDS011;50720;54.324;18.558;2022-12-07T07:17:11;4.75;;;2.83;;
42912;SDS011;50720;54.324;18.558;2022-12-07T07:19:41;4.90;;;2.90;;
42912;SDS011;50720;54.324;18.558;2022-12-07T07:22:10;4.93;;;2.65;;
42912;SDS011;50720;54.324;18.558;2022-12-07T07:24:42;4.93;;;2.97;;
42912;SDS011;50720;54.324;18.558;2022-12-07T07:27:12;10.23;;;5.10;;
42912;SDS011;50720;54.324;18.558;2022-12-07T07:29:41;8.60;;;3.97;;
42912;SDS011;50720;54.324;18.558;2022-12-07T07:32:11;11.90;;;5.00;;
42912;SDS011;50720;54.324;18.558;2022-12-07T07:34:41;9.23;;;4.65;;
42912;SDS011;50720;54.324;18.558;2022-12-07T07:37:10;7.45;;;3.90;;
42912;SDS011;50720;54.324;18.558;2022-12-07T07:39:49;7.13;;;4.10;;
42912;SDS011;50720;54.324;18.558;2022-12-07T07:42:19;10.95;;;5.10;;
42912;SDS011;50720;54.324;18.558;2022-12-07T07:44:48;11.63;;;4.82;;
42912;SDS011;50720;54.324;18.558;2022-12-07T07:47:18;10.20;;;4.45;;
42912;SDS011;50720;54.324;18.558;2022-12-07T07:49:47;11.88;;;5.65;;
42912;SDS011;50720;54.324;18.558;2022-12-07T07:52:17;7.88;;;4.80;;
42912;SDS011;50720;54.324;18.558;2022-12-07T07:54:46;11.25;;;7.00;;
42912;SDS011;50720;54.324;18.558;2022-12-07T07:57:17;11.88;;;5.95;;
42912;SDS011;50720;54.324;18.558;2022-12-07T07:59:47;11.82;;;6.53;;
42912;SDS011;50720;54.324;18.558;2022-12-07T08:02:17;9.95;;;5.43;;
42912;SDS011;50720;54.324;18.558;2022-12-07T08:04:48;11.63;;;6.65;;
42912;SDS011;50720;54.324;18.558;2022-12-07T08:07:18;10.02;;;6.05;;
42912;SDS011;50720;54.324;18.558;2022-12-07T08:09:47;12.77;;;6.32;;
42912;SDS011;50720;54.324;18.558;2022-12-07T08:12:19;9.13;;;5.63;;
42912;SDS011;50720;54.324;18.558;2022-12-07T08:14:48;13.35;;;5.90;;
42912;SDS011;50720;54.324;18.558;2022-12-07T08:17:18;10.43;;;5.25;;
42912;SDS011;50720;54.324;18.558;2022-12-07T08:19:50;9.05;;;5.78;;
42912;SDS011;50720;54.324;18.558;2022-12-07T08:22:19;10.68;;;6.32;;
42912;SDS011;50720;54.324;18.558;2022-12-07T08:24:49;10.95;;;5.53;;
42912;SDS011;50720;54.324;18.558;2022-12-07T08:27:20;12.55;;;6.80;;
42912;SDS011;50720;54.324;18.558;2022-12-07T08:29:54;11.05;;;6.03;;
42912;SDS011;50720;54.324;18.558;2022-12-07T08:32:23;9.38;;;5.95;;
42912;SDS011;50720;54.324;18.558;2022-12-07T08:34:54;8.55;;;5.43;;
42912;SDS011;50720;54.324;18.558;2022-12-07T08:37:23;7.72;;;4.85;;
42912;SDS011;50720;54.324;18.558;2022-12-07T08:39:53;8.38;;;5.80;;
42912;SDS011;50720;54.324;18.558;2022-12-07T08:42:24;15.30;;;5.80;;
42912;SDS011;50720;54.324;18.558;2022-12-07T08:44:57;9.68;;;5.60;;
42912;SDS011;50720;54.324;18.558;2022-12-07T08:47:26;7.00;;;5.25;;
42912;SDS011;50720;54.324;18.558;2022-12-07T08:49:56;8.43;;;5.53;;
42912;SDS011;50720;54.324;18.558;2022-12-07T08:52:30;7.78;;;5.22;;
42912;SDS011;50720;54.324;18.558;2022-12-07T08:55:01;7.18;;;4.80;;
42912;SDS011;50720;54.324;18.558;2022-12-07T08:57:33;8.85;;;4.97;;
42912;SDS011;50720;54.324;18.558;2022-12-07T09:00:04;9.05;;;5.45;;
42912;SDS011;50720;54.324;18.558;2022-12-07T09:02:35;8.18;;;4.85;;
42912;SDS011;50720;54.324;18.558;2022-12-07T09:05:06;7.50;;;5.10;;
42912;SDS011;50720;54.324;18.558;2022-12-07T09:07:42;6.78;;;4.22;;
42912;SDS011;50720;54.324;18.558;2022-12-07T09:10:14;6.15;;;4.30;;
42912;SDS011;50720;54.324;18.558;2022-12-07T09:12:45;6.53;;;3.75;;
42912;SDS011;50720;54.324;18.558;2022-12-07T09:15:14;6.25;;;3.75;;
42912;SDS011;50720;54.324;18.558;2022-12-07T09:17:44;7.18;;;4.35;;
42912;SDS011;50720;54.324;18.558;2022-12-07T09:20:14;6.40;;;4.30;;
42912;SDS011;50720;54.324;18.558;2022-12-07T09:22:45;7.50;;;4.82;;
42912;SDS011;50720;54.324;18.558;2022-12-07T09:25:16;8.23;;;3.95;;
42912;SDS011;50720;54.324;18.558;2022-12-07T09:27:47;5.65;;;4.28;;
42912;SDS011;50720;54.324;18.558;2022-12-07T09:30:17;7.95;;;4.47;;
42912;SDS011;50720;54.324;18.558;2022-12-07T09:32:46;8.80;;;5.35;;
42912;SDS011;50720;54.324;18.558;2022-12-07T09:35:16;7.97;;;4.00;;
42912;SDS011;50720;54.324;18.558;2022-12-07T09:37:45;7.00;;;4.53;;
42912;SDS011;50720;54.324;18.558;2022-12-07T09:40:16;8.25;;;5.35;;
42912;SDS011;50720;54.324;18.558;2022-12-07T09:42:50;6.07;;;4.28;;
42912;SDS011;50720;54.324;18.558;2022-12-07T09:45:24;5.65;;;3.88;;
42912;SDS011;50720;54.324;18.558;2022-12-07T09:47:57;5.10;;;3.85;;
42912;SDS011;50720;54.324;18.558;2022-12-07T09:50:27;7.95;;;4.90;;
42912;SDS011;50720;54.324;18.558;2022-12-07T09:53:03;7.28;;;4.70;;
42912;SDS011;50720;54.324;18.558;2022-12-07T09:55:37;7.35;;;4.63;;
42912;SDS011;50720;54.324;18.558;2022-12-07T09:58:11;8.43;;;4.93;;
42912;SDS011;50720;54.324;18.558;2022-12-07T10:00:50;8.80;;;4.93;;
42912;SDS011;50720;54.324;18.558;2022-12-07T10:03:21;13.80;;;5.82;;
42912;SDS011;50720;54.324;18.558;2022-12-07T10:05:51;9.10;;;5.70;;
42912;SDS011;50720;54.324;18.558;2022-12-07T10:08:21;10.30;;;5.90;;
42912;SDS011;50720;54.324;18.558;2022-12-07T10:10:53;10.00;;;6.35;;
42912;SDS011;50720;54.324;18.558;2022-12-07T10:13:35;11.57;;;6.68;;
42912;SDS011;50720;54.324;18.558;2022-12-07T10:16:32;9.65;;;6.20;;
42912;SDS011;50720;54.324;18.558;2022-12-07T10:19:04;10.02;;;6.60;;
42912;SDS011;50720;54.324;18.558;2022-12-07T10:21:59;8.40;;;4.85;;
42912;SDS011;50720;54.324;18.558;2022-12-07T10:24:29;11.68;;;6.68;;
42912;SDS011;50720;54.324;18.558;2022-12-07T10:27:00;11.15;;;6.07;;
42912;SDS011;50720;54.324;18.558;2022-12-07T10:29:31;8.25;;;5.50;;
42912;SDS011;50720;54.324;18.558;2022-12-07T10:32:04;9.80;;;5.30;;
42912;SDS011;50720;54.324;18.558;2022-12-07T10:34:59;6.50;;;5.05;;
42912;SDS011;50720;54.324;18.558;2022-12-07T10:37:51;9.27;;;5.22;;
42912;SDS011;50720;54.324;18.558;2022-12-07T10:43:01;11.45;;;5.20;;
42912;SDS011;50720;54.324;18.558;2022-12-07T10:45:34;9.07;;;5.32;;
42912;SDS011;50720;54.324;18.558;2022-12-07T10:48:31;9.63;;;5.10;;
42912;SDS011;50720;54.324;18.558;2022-12-07T10:51:08;8.50;;;4.85;;
42912;SDS011;50720;54.324;18.558;2022-12-07T10:53:50;8.95;;;5.90;;
42912;SDS011;50720;54.324;18.558;2022-12-07T10:59:35;11.95;;;7.15;;
42912;SDS011;50720;54.324;18.558;2022-12-07T11:02:23;7.23;;;4.90;;
42912;SDS011;50720;54.324;18.558;2022-12-07T11:05:07;9.18;;;5.07;;
42912;SDS011;50720;54.324;18.558;2022-12-07T11:07:48;8.70;;;5.38;;
42912;SDS011;50720;54.324;18.558;2022-12-07T11:10:26;7.33;;;4.57;;
42912;SDS011;50720;54.324;18.558;2022-12-07T11:13:16;6.13;;;3.85;;
42912;SDS011;50720;54.324;18.558;2022-12-07T11:19:01;6.78;;;4.03;;
42912;SDS011;50720;54.324;18.558;2022-12-07T11:21:44;7.70;;;5.00;;
42912;SDS011;50720;54.324;18.558;2022-12-07T11:24:22;8.23;;;5.28;;
42912;SDS011;50720;54.324;18.558;2022-12-07T11:27:00;9.63;;;5.65;;
42912;SDS011;50720;54.324;18.558;2022-12-07T11:29:47;6.35;;;4.70;;
42912;SDS011;50720;54.324;18.558;2022-12-07T11:32:28;10.07;;;4.53;;
42912;SDS011;50720;54.324;18.558;2022-12-07T11:35:16;10.32;;;5.30;;
42912;SDS011;50720;54.324;18.558;2022-12-07T11:37:55;9.52;;;6.05;;
42912;SDS011;50720;54.324;18.558;2022-12-07T11:40:29;11.20;;;6.47;;
42912;SDS011;50720;54.324;18.558;2022-12-07T11:43:04;9.20;;;5.25;;
42912;SDS011;50720;54.324;18.558;2022-12-07T11:45:42;8.95;;;4.90;;
42912;SDS011;50720;54.324;18.558;2022-12-07T11:48:15;8.52;;;5.30;;
42912;SDS011;50720;54.324;18.558;2022-12-07T11:50:52;9.85;;;6.40;;
42912;SDS011;50720;54.324;18.558;2022-12-07T11:53:27;6.68;;;5.00;;
42912;SDS011;50720;54.324;18.558;2022-12-07T11:56:06;9.40;;;5.50;;
42912;SDS011;50720;54.324;18.558;2022-12-07T11:58:42;8.95;;;5.95;;
42912;SDS011;50720;54.324;18.558;2022-12-07T12:01:24;9.23;;;5.38;;
42912;SDS011;50720;54.324;18.558;2022-12-07T12:04:05;9.10;;;5.25;;
42912;SDS011;50720;54.324;18.558;2022-12-07T12:06:46;8.80;;;6.32;;
42912;SDS011;50720;54.324;18.558;2022-12-07T12:09:17;9.57;;;5.63;;
42912;SDS011;50720;54.324;18.558;2022-12-07T12:12:10;9.57;;;5.85;;
42912;SDS011;50720;54.324;18.558;2022-12-07T12:15:21;9.05;;;5.03;;
42912;SDS011;50720;54.324;18.558;2022-12-07T12:18:05;8.20;;;5.03;;
42912;SDS011;50720;54.324;18.558;2022-12-07T12:20:54;7.95;;;5.05;;
42912;SDS011;50720;54.324;18.558;2022-12-07T12:23:30;8.18;;;5.60;;
42912;SDS011;50720;54.324;18.558;2022-12-07T12:26:13;8.00;;;5.50;;
42912;SDS011;50720;54.324;18.558;2022-12-07T12:28:50;10.30;;;6.20;;
42912;SDS011;50720;54.324;18.558;2022-12-07T12:31:37;10.25;;;5.93;;
42912;SDS011;50720;54.324;18.558;2022-12-07T12:36:59;10.52;;;6.55;;
42912;SDS011;50720;54.324;18.558;2022-12-07T12:39:30;11.00;;;7.20;;
42912;SDS011;50720;54.324;18.558;2022-12-07T12:42:00;9.70;;;6.20;;
42912;SDS011;50720;54.324;18.558;2022-12-07T12:50:31;13.45;;;7.15;;
42912;SDS011;50720;54.324;18.558;2022-12-07T12:53:12;12.88;;;7.30;;
42912;SDS011;50720;54.324;18.558;2022-12-07T12:58:33;13.13;;;7.43;;
42912;SDS011;50720;54.324;18.558;2022-12-07T13:04:28;13.60;;;6.97;;
42912;SDS011;50720;54.324;18.558;2022-12-07T13:10:21;16.08;;;8.02;;
42912;SDS011;50720;54.324;18.558;2022-12-07T13:12:57;15.63;;;6.95;;
42912;SDS011;50720;54.324;18.558;2022-12-07T13:15:34;11.82;;;6.80;;
42912;SDS011;50720;54.324;18.558;2022-12-07T13:20:55;16.50;;;7.78;;
42912;SDS011;50720;54.324;18.558;2022-12-07T13:23:27;18.88;;;8.30;;
42912;SDS011;50720;54.324;18.558;2022-12-07T13:26:13;17.95;;;6.95;;
42912;SDS011;50720;54.324;18.558;2022-12-07T13:28:46;14.30;;;6.72;;
42912;SDS011;50720;54.324;18.558;2022-12-07T13:31:35;10.93;;;5.45;;
42912;SDS011;50720;54.324;18.558;2022-12-07T13:36:59;12.63;;;6.65;;
42912;SDS011;50720;54.324;18.558;2022-12-07T13:42:07;12.60;;;7.15;;
42912;SDS011;50720;54.324;18.558;2022-12-07T13:44:48;11.43;;;6.40;;
42912;SDS011;50720;54.324;18.558;2022-12-07T13:47:20;10.82;;;6.40;;
42912;SDS011;50720;54.324;18.558;2022-12-07T13:49:54;12.27;;;5.97;;
42912;SDS011;50720;54.324;18.558;2022-12-07T13:52:25;17.17;;;5.90;;
42912;SDS011;50720;54.324;18.558;2022-12-07T13:54:57;14.98;;;6.95;;
42912;SDS011;50720;54.324;18.558;2022-12-07T13:57:29;12.68;;;6.78;;
42912;SDS011;50720;54.324;18.558;2022-12-07T14:00:02;14.50;;;6.25;;
42912;SDS011;50720;54.324;18.558;2022-12-07T14:02:36;12.65;;;6.95;;
42912;SDS011;50720;54.324;18.558;2022-12-07T14:05:14;13.30;;;6.18;;
42912;SDS011;50720;54.324;18.558;2022-12-07T14:07:53;13.77;;;6.00;;
42912;SDS011;50720;54.324;18.558;2022-12-07T14:10:25;13.20;;;6.38;;
42912;SDS011;50720;54.324;18.558;2022-12-07T14:12:57;13.20;;;6.03;;
42912;SDS011;50720;54.324;18.558;2022-12-07T14:15:28;14.18;;;6.50;;
42912;SDS011;50720;54.324;18.558;2022-12-07T14:18:02;11.05;;;5.57;;
42912;SDS011;50720;54.324;18.558;2022-12-07T14:20:33;16.00;;;6.82;;
42912;SDS011;50720;54.324;18.558;2022-12-07T14:23:05;19.23;;;7.05;;
42912;SDS011;50720;54.324;18.558;2022-12-07T14:25:52;15.88;;;6.40;;
42912;SDS011;50720;54.324;18.558;2022-12-07T14:30:55;10.73;;;5.28;;
42912;SDS011;50720;54.324;18.558;2022-12-07T14:33:27;14.65;;;6.45;;
42912;SDS011;50720;54.324;18.558;2022-12-07T14:35:57;15.02;;;7.38;;
42912;SDS011;50720;54.324;18.558;2022-12-07T14:38:27;11.77;;;6.10;;
42912;SDS011;50720;54.324;18.558;2022-12-07T14:40:56;12.77;;;6.65;;
42912;SDS011;50720;54.324;18.558;2022-12-07T14:43:47;13.38;;;5.18;;
42912;SDS011;50720;54.324;18.558;2022-12-07T14:46:37;13.93;;;5.40;;
42912;SDS011;50720;54.324;18.558;2022-12-07T14:49:08;15.70;;;6.18;;
42912;SDS011;50720;54.324;18.558;2022-12-07T14:51:57;8.82;;;5.03;;
42912;SDS011;50720;54.324;18.558;2022-12-07T14:54:48;12.35;;;3.95;;
42912;SDS011;50720;54.324;18.558;2022-12-07T14:57:18;9.40;;;4.05;;
42912;SDS011;50720;54.324;18.558;2022-12-07T14:59:48;9.52;;;4.93;;
42912;SDS011;50720;54.324;18.558;2022-12-07T15:02:17;6.75;;;3.90;;
42912;SDS011;50720;54.324;18.558;2022-12-07T15:04:49;6.50;;;3.83;;
42912;SDS011;50720;54.324;18.558;2022-12-07T15:07:19;6.45;;;4.93;;
42912;SDS011;50720;54.324;18.558;2022-12-07T15:09:50;7.22;;;4.05;;
42912;SDS011;50720;54.324;18.558;2022-12-07T15:12:19;9.70;;;4.43;;
42912;SDS011;50720;54.324;18.558;2022-12-07T15:14:49;8.18;;;4.45;;
42912;SDS011;50720;54.324;18.558;2022-12-07T15:17:18;8.45;;;4.05;;
42912;SDS011;50720;54.324;18.558;2022-12-07T15:19:59;7.28;;;3.72;;
42912;SDS011;50720;54.324;18.558;2022-12-07T15:25:04;8.00;;;3.78;;
42912;SDS011;50720;54.324;18.558;2022-12-07T15:27:34;6.60;;;3.92;;
42912;SDS011;50720;54.324;18.558;2022-12-07T15:30:04;6.70;;;3.80;;
42912;SDS011;50720;54.324;18.558;2022-12-07T15:35:07;5.90;;;3.20;;
42912;SDS011;50720;54.324;18.558;2022-12-07T15:37:37;7.82;;;3.13;;
42912;SDS011;50720;54.324;18.558;2022-12-07T15:40:08;6.90;;;2.92;;
42912;SDS011;50720;54.324;18.558;2022-12-07T15:42:38;10.00;;;3.92;;
42912;SDS011;50720;54.324;18.558;2022-12-07T15:45:09;8.68;;;3.95;;
42912;SDS011;50720;54.324;18.558;2022-12-07T15:47:40;9.73;;;4.35;;
42912;SDS011;50720;54.324;18.558;2022-12-07T15:50:33;10.88;;;4.05;;
42912;SDS011;50720;54.324;18.558;2022-12-07T15:53:03;9.50;;;5.20;;
42912;SDS011;50720;54.324;18.558;2022-12-07T15:55:34;14.90;;;4.97;;
42912;SDS011;50720;54.324;18.558;2022-12-07T15:58:03;12.10;;;5.53;;
42912;SDS011;50720;54.324;18.558;2022-12-07T16:00:33;6.87;;;4.30;;
42912;SDS011;50720;54.324;18.558;2022-12-07T16:03:03;10.45;;;5.05;;